Bouzas — EAPC — position and weather

sailwx.info

Track history (hours):
 
Tides and Currents Weather Stations Pressure Air Temp Water Temp Dewpoint Dewpoint Depression Visibility Wind Speed Wind Dir Waves Ship Positions

Bouzas

Last reported at 2015-May-26 03:26 UTC. Time now 2015-May-26 05:37 UTC.
Position N 29°12' W 015°12'.

Length 142 m; draft 5.7 m.

Type: Cargo ship. MMSI: 224029000.

Date/timePositionNaut miles runAvg speedWind from/ knotsBaromVisibWave heightAir tempDewpointWater temp
2015-May-26 03:26N 29°12' W 015°12'1517.5
2015-May-26 02:33N 29°02' W 015°25'1817.6
2015-May-26 01:33N 28°50' W 015°40'1817.2
2015-May-26 00:32N 28°38' W 015°55'1917.1
2015-May-25 23:26N 28°29' W 016°13'1 1.0
2015-May-25 22:04N 28°29' W 016°15'0 0.0
2015-May-25 21:22N 28°29' W 016°15'0 0.0
2015-May-25 20:10N 28°29' W 016°15'0 0.0
2015-May-25 18:10N 28°29' W 016°15'0 0.0
2015-May-25 16:21N 28°29' W 016°15'0 0.0
2015-May-25 15:33N 28°29' W 016°15'1010.0
2015-May-25 14:33N 28°25' W 016°04'1918.5
2015-May-25 13:33N 28°19' W 015°44'1918.6
2015-May-25 12:33N 28°12' W 015°24'4 3.5
2015-May-25 11:31N 28°09' W 015°25'0 0.0
2015-May-25 10:31N 28°09' W 015°25'68716.3
2015-May-23 16:25N 35°58' W 005°33'1618.6
2015-May-23 15:34N 36°04' W 005°15'11418.7
2015-May-23 09:27N 36°35' W 002°59'1719.4
2015-May-23 08:33N 36°31' W 002°38'2319.2
2015-May-23 07:23N 36°27' W 002°10'2519.4
2015-May-23 06:07N 36°43' W 001°47'3419.4
2015-May-23 04:22N 37°05' W 001°15'1619.1
2015-May-23 03:33N 37°15' W 001°00'1919.0
2015-May-23 02:33N 37°28' W 000°42'1919.2
2015-May-23 01:33N 37°42' W 000°26'1919.2
2015-May-23 00:33N 37°58' W 000°13'2119.5
2015-May-22 23:29N 38°16' E 000°01'29 0.8
2015-May-21 10:30N 37°50' W 000°15'1717.8
2015-May-21 09:33N 37°37' W 000°28'1818.0
2015-May-21 08:33N 37°24' W 000°44'1615.7
2015-May-21 07:33N 37°14' W 000°59'6913.3
2015-May-21 02:20N 36°28' W 002°04'1411.9
2015-May-21 01:10N 36°21' W 002°19'912.4
2015-May-21 00:26N 36°20' W 002°30'13417.0
2015-May-20 16:33N 35°59' W 005°14'  
2015-May-17 15:18N 31°16' W 011°43'1418.3
2015-May-17 14:33N 31°25' W 011°31'41018.4
2015-May-16 16:14N 36°00' W 005°25'1217.3
2015-May-16 15:33N 36°05' W 005°12'20418.0
2015-May-16 04:12N 37°09' W 001°10'1319.3
2015-May-16 03:33N 37°17' W 000°58'  
Track history (hours):
 
Tides and Currents Weather Stations Pressure Air Temp Water Temp Dewpoint Dewpoint Depression Visibility Wind Speed Wind Dir Waves Ship Positions

Bouzas

Last reported at 2015-May-26 03:26 UTC. Time now 2015-May-26 05:37 UTC.
Position N 29°12' W 015°12'.

Length 142 m; draft 5.7 m.

Type: Cargo ship. MMSI: 224029000.

Date/timePositionNaut miles runAvg speedWind from/ knotsBaromVisibWave heightAir tempDewpointWater temp
2015-May-26 03:26N 29°12' W 015°12'1517.5
2015-May-26 02:33N 29°02' W 015°25'1817.6
2015-May-26 01:33N 28°50' W 015°40'1817.2
2015-May-26 00:32N 28°38' W 015°55'1917.1
2015-May-25 23:26N 28°29' W 016°13'1 1.0
2015-May-25 22:04N 28°29' W 016°15'0 0.0
2015-May-25 21:22N 28°29' W 016°15'0 0.0
2015-May-25 20:10N 28°29' W 016°15'0 0.0
2015-May-25 18:10N 28°29' W 016°15'0 0.0
2015-May-25 16:21N 28°29' W 016°15'0 0.0
2015-May-25 15:33N 28°29' W 016°15'1010.0
2015-May-25 14:33N 28°25' W 016°04'1918.5
2015-May-25 13:33N 28°19' W 015°44'1918.6
2015-May-25 12:33N 28°12' W 015°24'4 3.5
2015-May-25 11:31N 28°09' W 015°25'0 0.0
2015-May-25 10:31N 28°09' W 015°25'68716.3
2015-May-23 16:25N 35°58' W 005°33'1618.6
2015-May-23 15:34N 36°04' W 005°15'11418.7
2015-May-23 09:27N 36°35' W 002°59'1719.4
2015-May-23 08:33N 36°31' W 002°38'2319.2
2015-May-23 07:23N 36°27' W 002°10'2519.4
2015-May-23 06:07N 36°43' W 001°47'3419.4
2015-May-23 04:22N 37°05' W 001°15'1619.1
2015-May-23 03:33N 37°15' W 001°00'1919.0
2015-May-23 02:33N 37°28' W 000°42'1919.2
2015-May-23 01:33N 37°42' W 000°26'1919.2
2015-May-23 00:33N 37°58' W 000°13'2119.5
2015-May-22 23:29N 38°16' E 000°01'29 0.8
2015-May-21 10:30N 37°50' W 000°15'1717.8
2015-May-21 09:33N 37°37' W 000°28'1818.0
2015-May-21 08:33N 37°24' W 000°44'1615.7
2015-May-21 07:33N 37°14' W 000°59'6913.3
2015-May-21 02:20N 36°28' W 002°04'1411.9
2015-May-21 01:10N 36°21' W 002°19'912.4
2015-May-21 00:26N 36°20' W 002°30'13417.0
2015-May-20 16:33N 35°59' W 005°14'  
2015-May-17 15:18N 31°16' W 011°43'1418.3
2015-May-17 14:33N 31°25' W 011°31'41018.4
2015-May-16 16:14N 36°00' W 005°25'1217.3
2015-May-16 15:33N 36°05' W 005°12'20418.0
2015-May-16 04:12N 37°09' W 001°10'1319.3
2015-May-16 03:33N 37°17' W 000°58'  

Dump ship's entire track history